Hot Springs, Virginia
Current Conditions -  °F | °C
As of 3:55 AM on Monday 20 Oct 2014 (Local Time) from KHSP Reporting Station
Clear Clear  
Wind Chill: 40°   Ceiling: Unl
Heat Index: 46°   Visibility: 10mi
Dew Point: 11°   Wind: 14mph
Humidity: 24%   Direction: 240°WSW
Pressure: 30.04"   Gusts: NA
Location:  37.97°N, 79.77°W
Report Text: KHSP 200755Z AUTO 24012KT 10SM CLR 08/M12 A3004 RMK AO2 T00801116
Loading
Personal Weather Stations






























Interactive Weather Map
Tropical Storm Tracking
New forecast layout! Learn more

10-Day Weather Forecast

Advertisements
Track Severe Weather on mobile